sensor_id;sensor_type;location;lat;lon;timestamp;temperature;humidity
10437;DHT22;5265;50.006;9.202;2022-10-19T00:01:04;14.50;1.00
10437;DHT22;5265;50.006;9.202;2022-10-19T00:03:32;14.50;1.00
10437;DHT22;5265;50.006;9.202;2022-10-19T00:05:59;14.50;99.90
10437;DHT22;5265;50.006;9.202;2022-10-19T00:08:26;14.50;99.90
10437;DHT22;5265;50.006;9.202;2022-10-19T00:10:54;14.50;99.90
10437;DHT22;5265;50.006;9.202;2022-10-19T00:13:21;14.50;99.90
10437;DHT22;5265;50.006;9.202;2022-10-19T00:15:48;14.40;99.90
10437;DHT22;5265;50.006;9.202;2022-10-19T00:18:16;14.40;99.90
10437;DHT22;5265;50.006;9.202;2022-10-19T00:20:43;14.40;99.90
10437;DHT22;5265;50.006;9.202;2022-10-19T00:23:10;14.30;99.90
10437;DHT22;5265;50.006;9.202;2022-10-19T00:25:37;14.30;99.90
10437;DHT22;5265;50.006;9.202;2022-10-19T00:28:04;14.30;99.90
10437;DHT22;5265;50.006;9.202;2022-10-19T00:30:35;14.30;99.90
10437;DHT22;5265;50.006;9.202;2022-10-19T00:33:02;14.20;99.90
10437;DHT22;5265;50.006;9.202;2022-10-19T00:35:31;14.20;99.90
10437;DHT22;5265;50.006;9.202;2022-10-19T00:37:58;14.20;99.90
10437;DHT22;5265;50.006;9.202;2022-10-19T00:40:25;14.20;99.90
10437;DHT22;5265;50.006;9.202;2022-10-19T00:42:53;14.10;99.90
10437;DHT22;5265;50.006;9.202;2022-10-19T00:45:19;14.10;92.50
10437;DHT22;5265;50.006;9.202;2022-10-19T00:47:47;14.10;27.30
10437;DHT22;5265;50.006;9.202;2022-10-19T00:50:14;14.10;99.90
10437;DHT22;5265;50.006;9.202;2022-10-19T00:52:43;14.00;1.00
10437;DHT22;5265;50.006;9.202;2022-10-19T00:55:10;14.00;1.00
10437;DHT22;5265;50.006;9.202;2022-10-19T00:57:38;13.90;1.00
10437;DHT22;5265;50.006;9.202;2022-10-19T01:00:05;13.90;9.20
10437;DHT22;5265;50.006;9.202;2022-10-19T01:02:33;13.90;99.90
10437;DHT22;5265;50.006;9.202;2022-10-19T01:05:00;13.90;1.00
10437;DHT22;5265;50.006;9.202;2022-10-19T01:07:27;13.90;1.00
10437;DHT22;5265;50.006;9.202;2022-10-19T01:09:56;13.90;1.00
10437;DHT22;5265;50.006;9.202;2022-10-19T01:12:34;13.80;1.00
10437;DHT22;5265;50.006;9.202;2022-10-19T01:15:07;13.90;19.30
10437;DHT22;5265;50.006;9.202;2022-10-19T01:17:41;13.90;1.00
10437;DHT22;5265;50.006;9.202;2022-10-19T01:23:10;13.80;1.00
10437;DHT22;5265;50.006;9.202;2022-10-19T01:25:46;13.80;1.00
10437;DHT22;5265;50.006;9.202;2022-10-19T01:28:17;13.80;1.00
10437;DHT22;5265;50.006;9.202;2022-10-19T01:30:49;13.80;1.00
10437;DHT22;5265;50.006;9.202;2022-10-19T01:33:22;13.80;1.00
10437;DHT22;5265;50.006;9.202;2022-10-19T01:35:56;13.80;1.00
10437;DHT22;5265;50.006;9.202;2022-10-19T01:38:26;13.80;1.00
10437;DHT22;5265;50.006;9.202;2022-10-19T01:40:58;13.80;1.00
10437;DHT22;5265;50.006;9.202;2022-10-19T01:43:33;13.80;1.00
10437;DHT22;5265;50.006;9.202;2022-10-19T01:46:07;13.80;1.00
10437;DHT22;5265;50.006;9.202;2022-10-19T01:48:36;13.80;1.00
10437;DHT22;5265;50.006;9.202;2022-10-19T01:51:05;13.80;1.00
10437;DHT22;5265;50.006;9.202;2022-10-19T01:53:34;13.80;1.00
10437;DHT22;5265;50.006;9.202;2022-10-19T01:56:03;13.90;1.00
10437;DHT22;5265;50.006;9.202;2022-10-19T01:58:32;13.80;99.90
10437;DHT22;5265;50.006;9.202;2022-10-19T02:01:01;13.90;99.90
10437;DHT22;5265;50.006;9.202;2022-10-19T02:03:30;13.70;99.90
10437;DHT22;5265;50.006;9.202;2022-10-19T02:05:59;13.70;1.00
10437;DHT22;5265;50.006;9.202;2022-10-19T02:08:27;13.70;1.00
10437;DHT22;5265;50.006;9.202;2022-10-19T02:10:56;13.60;99.90
10437;DHT22;5265;50.006;9.202;2022-10-19T02:13:24;13.60;1.00
10437;DHT22;5265;50.006;9.202;2022-10-19T02:15:53;13.60;1.00
10437;DHT22;5265;50.006;9.202;2022-10-19T02:18:23;13.60;1.00
10437;DHT22;5265;50.006;9.202;2022-10-19T02:20:52;13.70;1.00
10437;DHT22;5265;50.006;9.202;2022-10-19T02:23:21;13.60;1.00
10437;DHT22;5265;50.006;9.202;2022-10-19T02:25:49;13.70;1.00
10437;DHT22;5265;50.006;9.202;2022-10-19T02:28:16;13.70;99.90
10437;DHT22;5265;50.006;9.202;2022-10-19T02:30:43;13.60;1.00
10437;DHT22;5265;50.006;9.202;2022-10-19T02:33:11;13.60;41.10
10437;DHT22;5265;50.006;9.202;2022-10-19T02:35:38;13.50;1.00
10437;DHT22;5265;50.006;9.202;2022-10-19T02:38:07;13.40;99.90
10437;DHT22;5265;50.006;9.202;2022-10-19T02:40:36;13.50;1.00
10437;DHT22;5265;50.006;9.202;2022-10-19T02:43:05;13.40;99.90
10437;DHT22;5265;50.006;9.202;2022-10-19T02:45:36;13.40;1.00
10437;DHT22;5265;50.006;9.202;2022-10-19T02:48:06;13.40;99.90
10437;DHT22;5265;50.006;9.202;2022-10-19T02:50:34;13.30;99.90
10437;DHT22;5265;50.006;9.202;2022-10-19T02:53:01;13.30;1.00
10437;DHT22;5265;50.006;9.202;2022-10-19T02:55:30;13.20;1.00
10437;DHT22;5265;50.006;9.202;2022-10-19T02:57:57;13.30;99.90
10437;DHT22;5265;50.006;9.202;2022-10-19T03:00:24;13.30;1.00
10437;DHT22;5265;50.006;9.202;2022-10-19T03:02:51;13.20;1.00
10437;DHT22;5265;50.006;9.202;2022-10-19T03:05:18;13.20;99.90
10437;DHT22;5265;50.006;9.202;2022-10-19T03:07:45;13.10;99.90
10437;DHT22;5265;50.006;9.202;2022-10-19T03:10:13;13.10;1.00
10437;DHT22;5265;50.006;9.202;2022-10-19T03:12:41;13.10;1.00
10437;DHT22;5265;50.006;9.202;2022-10-19T03:15:09;13.10;1.00
10437;DHT22;5265;50.006;9.202;2022-10-19T03:17:36;13.10;99.90
10437;DHT22;5265;50.006;9.202;2022-10-19T03:20:04;13.10;99.90
10437;DHT22;5265;50.006;9.202;2022-10-19T03:22:31;13.10;99.90
10437;DHT22;5265;50.006;9.202;2022-10-19T03:24:58;13.00;99.90
10437;DHT22;5265;50.006;9.202;2022-10-19T03:27:26;13.00;99.90
10437;DHT22;5265;50.006;9.202;2022-10-19T03:29:57;12.90;99.90
10437;DHT22;5265;50.006;9.202;2022-10-19T03:32:24;12.90;99.90
10437;DHT22;5265;50.006;9.202;2022-10-19T03:34:51;12.90;99.90
10437;DHT22;5265;50.006;9.202;2022-10-19T03:37:18;12.90;1.00
10437;DHT22;5265;50.006;9.202;2022-10-19T03:39:45;12.90;99.90
10437;DHT22;5265;50.006;9.202;2022-10-19T03:42:12;12.80;1.00
10437;DHT22;5265;50.006;9.202;2022-10-19T03:44:39;12.80;82.10
10437;DHT22;5265;50.006;9.202;2022-10-19T03:47:08;12.70;99.90
10437;DHT22;5265;50.006;9.202;2022-10-19T03:49:35;12.80;1.00
10437;DHT22;5265;50.006;9.202;2022-10-19T03:52:02;12.80;1.00
10437;DHT22;5265;50.006;9.202;2022-10-19T03:54:29;12.70;99.90
10437;DHT22;5265;50.006;9.202;2022-10-19T03:56:56;12.60;1.00
10437;DHT22;5265;50.006;9.202;2022-10-19T03:59:23;12.50;1.00
10437;DHT22;5265;50.006;9.202;2022-10-19T04:01:51;12.50;1.00
10437;DHT22;5265;50.006;9.202;2022-10-19T04:04:19;12.40;33.60
10437;DHT22;5265;50.006;9.202;2022-10-19T04:06:47;12.40;99.90
10437;DHT22;5265;50.006;9.202;2022-10-19T04:09:15;12.30;1.00
10437;DHT22;5265;50.006;9.202;2022-10-19T04:11:43;12.30;1.00
10437;DHT22;5265;50.006;9.202;2022-10-19T04:14:10;12.30;1.00
10437;DHT22;5265;50.006;9.202;2022-10-19T04:16:38;12.20;99.90
10437;DHT22;5265;50.006;9.202;2022-10-19T04:19:05;12.10;1.00
10437;DHT22;5265;50.006;9.202;2022-10-19T04:21:34;12.00;99.90
10437;DHT22;5265;50.006;9.202;2022-10-19T04:24:02;11.90;1.00
10437;DHT22;5265;50.006;9.202;2022-10-19T04:26:30;11.90;99.90
10437;DHT22;5265;50.006;9.202;2022-10-19T04:28:58;11.90;95.30
10437;DHT22;5265;50.006;9.202;2022-10-19T04:31:25;11.90;99.90
10437;DHT22;5265;50.006;9.202;2022-10-19T04:33:53;11.80;1.00
10437;DHT22;5265;50.006;9.202;2022-10-19T04:36:20;11.70;1.00
10437;DHT22;5265;50.006;9.202;2022-10-19T04:38:48;11.80;1.00
10437;DHT22;5265;50.006;9.202;2022-10-19T04:41:17;11.70;1.00
10437;DHT22;5265;50.006;9.202;2022-10-19T04:43:44;11.70;1.00
10437;DHT22;5265;50.006;9.202;2022-10-19T04:46:12;11.70;1.00
10437;DHT22;5265;50.006;9.202;2022-10-19T04:48:39;11.60;6.20
10437;DHT22;5265;50.006;9.202;2022-10-19T04:51:07;11.60;99.90
10437;DHT22;5265;50.006;9.202;2022-10-19T04:53:35;11.70;99.90
10437;DHT22;5265;50.006;9.202;2022-10-19T04:56:04;11.70;1.00
10437;DHT22;5265;50.006;9.202;2022-10-19T04:58:32;11.70;15.50
10437;DHT22;5265;50.006;9.202;2022-10-19T05:01:05;11.70;99.90
10437;DHT22;5265;50.006;9.202;2022-10-19T05:03:32;11.70;1.00
10437;DHT22;5265;50.006;9.202;2022-10-19T05:05:59;11.70;1.00
10437;DHT22;5265;50.006;9.202;2022-10-19T05:08:26;11.70;1.00
10437;DHT22;5265;50.006;9.202;2022-10-19T05:10:54;11.80;1.00
10437;DHT22;5265;50.006;9.202;2022-10-19T05:13:22;11.80;99.90
10437;DHT22;5265;50.006;9.202;2022-10-19T05:15:54;11.80;99.90
10437;DHT22;5265;50.006;9.202;2022-10-19T05:18:21;11.70;99.90
10437;DHT22;5265;50.006;9.202;2022-10-19T05:20:48;11.60;99.90
10437;DHT22;5265;50.006;9.202;2022-10-19T05:23:15;11.60;99.90
10437;DHT22;5265;50.006;9.202;2022-10-19T05:25:43;11.60;99.90
10437;DHT22;5265;50.006;9.202;2022-10-19T05:28:10;11.60;1.00
10437;DHT22;5265;50.006;9.202;2022-10-19T05:30:39;11.50;20.10
10437;DHT22;5265;50.006;9.202;2022-10-19T05:33:06;11.50;99.90
10437;DHT22;5265;50.006;9.202;2022-10-19T05:35:33;11.50;1.00
10437;DHT22;5265;50.006;9.202;2022-10-19T05:38:00;11.60;99.90
10437;DHT22;5265;50.006;9.202;2022-10-19T05:40:28;11.70;99.90
10437;DHT22;5265;50.006;9.202;2022-10-19T05:42:55;11.70;99.90
10437;DHT22;5265;50.006;9.202;2022-10-19T05:45:22;11.70;90.10
10437;DHT22;5265;50.006;9.202;2022-10-19T05:47:50;11.70;1.00
10437;DHT22;5265;50.006;9.202;2022-10-19T05:50:17;11.70;1.00
10437;DHT22;5265;50.006;9.202;2022-10-19T05:52:45;11.70;1.00
10437;DHT22;5265;50.006;9.202;2022-10-19T05:55:12;11.70;1.00
10437;DHT22;5265;50.006;9.202;2022-10-19T05:57:39;11.70;99.90
10437;DHT22;5265;50.006;9.202;2022-10-19T06:00:07;11.60;99.90
10437;DHT22;5265;50.006;9.202;2022-10-19T06:02:37;11.50;99.90
10437;DHT22;5265;50.006;9.202;2022-10-19T06:05:06;11.50;1.00
10437;DHT22;5265;50.006;9.202;2022-10-19T06:07:33;11.50;99.90
10437;DHT22;5265;50.006;9.202;2022-10-19T06:10:00;11.40;99.90
10437;DHT22;5265;50.006;9.202;2022-10-19T06:12:27;11.30;1.00
10437;DHT22;5265;50.006;9.202;2022-10-19T06:14:54;11.30;1.00
10437;DHT22;5265;50.006;9.202;2022-10-19T06:17:22;11.30;99.90
10437;DHT22;5265;50.006;9.202;2022-10-19T06:19:49;11.20;99.90
10437;DHT22;5265;50.006;9.202;2022-10-19T06:22:17;11.10;99.90
10437;DHT22;5265;50.006;9.202;2022-10-19T06:24:45;11.10;1.00
10437;DHT22;5265;50.006;9.202;2022-10-19T06:27:12;11.10;1.00
10437;DHT22;5265;50.006;9.202;2022-10-19T06:29:39;11.10;1.00
10437;DHT22;5265;50.006;9.202;2022-10-19T06:32:06;11.10;1.00
10437;DHT22;5265;50.006;9.202;2022-10-19T06:34:33;11.10;1.00
10437;DHT22;5265;50.006;9.202;2022-10-19T06:37:00;11.00;60.10
10437;DHT22;5265;50.006;9.202;2022-10-19T06:39:29;11.10;99.90
10437;DHT22;5265;50.006;9.202;2022-10-19T06:41:56;11.10;99.90
10437;DHT22;5265;50.006;9.202;2022-10-19T06:44:23;11.10;99.90
10437;DHT22;5265;50.006;9.202;2022-10-19T06:46:51;11.20;99.90
10437;DHT22;5265;50.006;9.202;2022-10-19T06:49:18;11.30;99.90
10437;DHT22;5265;50.006;9.202;2022-10-19T06:51:45;11.30;99.90
10437;DHT22;5265;50.006;9.202;2022-10-19T06:54:12;11.30;99.90
10437;DHT22;5265;50.006;9.202;2022-10-19T06:56:41;11.40;99.90
10437;DHT22;5265;50.006;9.202;2022-10-19T06:59:08;11.40;99.90
10437;DHT22;5265;50.006;9.202;2022-10-19T07:01:37;11.40;99.90
10437;DHT22;5265;50.006;9.202;2022-10-19T07:04:04;11.40;99.90
10437;DHT22;5265;50.006;9.202;2022-10-19T07:06:31;11.60;99.90
10437;DHT22;5265;50.006;9.202;2022-10-19T07:08:59;11.70;99.90
10437;DHT22;5265;50.006;9.202;2022-10-19T07:11:27;11.70;99.90
10437;DHT22;5265;50.006;9.202;2022-10-19T07:13:55;11.80;99.90
10437;DHT22;5265;50.006;9.202;2022-10-19T07:16:23;11.90;99.90
10437;DHT22;5265;50.006;9.202;2022-10-19T07:18:50;12.00;99.90
10437;DHT22;5265;50.006;9.202;2022-10-19T07:21:18;12.00;99.90
10437;DHT22;5265;50.006;9.202;2022-10-19T07:23:46;12.10;99.90
10437;DHT22;5265;50.006;9.202;2022-10-19T07:26:14;12.20;99.90
10437;DHT22;5265;50.006;9.202;2022-10-19T07:28:42;12.30;99.90
10437;DHT22;5265;50.006;9.202;2022-10-19T07:31:12;12.30;99.90
10437;DHT22;5265;50.006;9.202;2022-10-19T07:33:39;12.40;99.90
10437;DHT22;5265;50.006;9.202;2022-10-19T07:36:07;12.40;1.00
10437;DHT22;5265;50.006;9.202;2022-10-19T07:38:35;12.40;1.00
10437;DHT22;5265;50.006;9.202;2022-10-19T07:41:03;12.40;1.00
10437;DHT22;5265;50.006;9.202;2022-10-19T07:43:30;12.40;99.90
10437;DHT22;5265;50.006;9.202;2022-10-19T07:45:58;12.50;99.90
10437;DHT22;5265;50.006;9.202;2022-10-19T07:48:26;12.60;99.90
10437;DHT22;5265;50.006;9.202;2022-10-19T07:50:54;12.60;99.90
10437;DHT22;5265;50.006;9.202;2022-10-19T07:53:21;12.80;99.90
10437;DHT22;5265;50.006;9.202;2022-10-19T07:55:48;12.80;1.00
10437;DHT22;5265;50.006;9.202;2022-10-19T07:58:16;12.90;99.90
10437;DHT22;5265;50.006;9.202;2022-10-19T08:00:43;12.90;1.00
10437;DHT22;5265;50.006;9.202;2022-10-19T08:03:10;12.90;1.00
10437;DHT22;5265;50.006;9.202;2022-10-19T08:05:38;13.00;1.00
10437;DHT22;5265;50.006;9.202;2022-10-19T08:08:06;13.10;99.90
10437;DHT22;5265;50.006;9.202;2022-10-19T08:10:33;13.20;99.90
10437;DHT22;5265;50.006;9.202;2022-10-19T08:13:00;13.20;99.90
10437;DHT22;5265;50.006;9.202;2022-10-19T08:15:27;13.30;99.90
10437;DHT22;5265;50.006;9.202;2022-10-19T08:17:55;13.50;1.00
10437;DHT22;5265;50.006;9.202;2022-10-19T08:20:22;13.60;99.90
10437;DHT22;5265;50.006;9.202;2022-10-19T08:22:50;13.60;1.00
10437;DHT22;5265;50.006;9.202;2022-10-19T08:25:17;13.70;1.00
10437;DHT22;5265;50.006;9.202;2022-10-19T08:27:44;13.70;1.00
10437;DHT22;5265;50.006;9.202;2022-10-19T08:30:12;13.80;1.00
10437;DHT22;5265;50.006;9.202;2022-10-19T08:32:39;13.80;1.00
10437;DHT22;5265;50.006;9.202;2022-10-19T08:35:06;13.90;99.90
10437;DHT22;5265;50.006;9.202;2022-10-19T08:37:33;13.90;99.90
10437;DHT22;5265;50.006;9.202;2022-10-19T08:40:02;13.90;68.90
10437;DHT22;5265;50.006;9.202;2022-10-19T08:42:31;14.00;8.40
10437;DHT22;5265;50.006;9.202;2022-10-19T08:45:20;14.10;18.50
10437;DHT22;5265;50.006;9.202;2022-10-19T08:47:53;14.10;39.90
10437;DHT22;5265;50.006;9.202;2022-10-19T08:50:22;14.20;94.30
10437;DHT22;5265;50.006;9.202;2022-10-19T08:52:51;14.30;1.00
10437;DHT22;5265;50.006;9.202;2022-10-19T08:55:24;14.40;1.00
10437;DHT22;5265;50.006;9.202;2022-10-19T08:57:53;14.40;1.00
10437;DHT22;5265;50.006;9.202;2022-10-19T09:00:25;14.20;1.00
10437;DHT22;5265;50.006;9.202;2022-10-19T09:03:01;14.20;1.00
10437;DHT22;5265;50.006;9.202;2022-10-19T09:05:31;14.30;1.00
10437;DHT22;5265;50.006;9.202;2022-10-19T09:08:01;14.40;1.00
10437;DHT22;5265;50.006;9.202;2022-10-19T09:10:30;14.50;1.00
10437;DHT22;5265;50.006;9.202;2022-10-19T09:12:59;14.50;24.50
10437;DHT22;5265;50.006;9.202;2022-10-19T09:15:27;14.60;1.00
10437;DHT22;5265;50.006;9.202;2022-10-19T09:17:59;14.70;1.00
10437;DHT22;5265;50.006;9.202;2022-10-19T09:20:28;14.80;1.00
10437;DHT22;5265;50.006;9.202;2022-10-19T09:23:00;14.80;1.00
10437;DHT22;5265;50.006;9.202;2022-10-19T09:25:27;14.90;1.00
10437;DHT22;5265;50.006;9.202;2022-10-19T09:27:59;15.00;1.00
10437;DHT22;5265;50.006;9.202;2022-10-19T09:30:27;15.00;1.00
10437;DHT22;5265;50.006;9.202;2022-10-19T09:32:57;15.10;99.90
10437;DHT22;5265;50.006;9.202;2022-10-19T09:35:26;15.00;99.90
10437;DHT22;5265;50.006;9.202;2022-10-19T09:37:54;15.10;99.90
10437;DHT22;5265;50.006;9.202;2022-10-19T09:40:23;15.00;99.90
10437;DHT22;5265;50.006;9.202;2022-10-19T09:42:50;15.10;99.90
10437;DHT22;5265;50.006;9.202;2022-10-19T09:45:34;15.10;99.90
10437;DHT22;5265;50.006;9.202;2022-10-19T09:48:03;15.10;99.90
10437;DHT22;5265;50.006;9.202;2022-10-19T09:50:37;15.10;99.90
10437;DHT22;5265;50.006;9.202;2022-10-19T09:53:10;15.10;99.90
10437;DHT22;5265;50.006;9.202;2022-10-19T09:55:42;15.10;99.90
10437;DHT22;5265;50.006;9.202;2022-10-19T09:58:14;15.20;99.90
10437;DHT22;5265;50.006;9.202;2022-10-19T10:00:44;15.20;99.90
10437;DHT22;5265;50.006;9.202;2022-10-19T10:03:21;15.20;99.90
10437;DHT22;5265;50.006;9.202;2022-10-19T10:05:49;15.20;99.90
10437;DHT22;5265;50.006;9.202;2022-10-19T10:08:17;15.10;99.90
10437;DHT22;5265;50.006;9.202;2022-10-19T10:10:45;15.10;99.90
10437;DHT22;5265;50.006;9.202;2022-10-19T10:13:14;15.10;99.90
10437;DHT22;5265;50.006;9.202;2022-10-19T10:15:45;15.10;99.90
10437;DHT22;5265;50.006;9.202;2022-10-19T10:18:14;15.10;99.90
10437;DHT22;5265;50.006;9.202;2022-10-19T10:20:54;15.10;99.90
10437;DHT22;5265;50.006;9.202;2022-10-19T10:23:22;15.10;99.90
10437;DHT22;5265;50.006;9.202;2022-10-19T10:25:49;15.20;99.90
10437;DHT22;5265;50.006;9.202;2022-10-19T10:28:17;15.20;99.90
10437;DHT22;5265;50.006;9.202;2022-10-19T10:30:46;15.20;99.90
10437;DHT22;5265;50.006;9.202;2022-10-19T10:33:13;15.20;99.90
10437;DHT22;5265;50.006;9.202;2022-10-19T10:35:45;15.20;98.10
10437;DHT22;5265;50.006;9.202;2022-10-19T10:38:16;15.20;89.80
10437;DHT22;5265;50.006;9.202;2022-10-19T10:40:48;15.20;79.60
10437;DHT22;5265;50.006;9.202;2022-10-19T10:43:16;15.20;83.40
10437;DHT22;5265;50.006;9.202;2022-10-19T10:45:44;15.30;70.60
10437;DHT22;5265;50.006;9.202;2022-10-19T10:48:23;15.30;66.30
10437;DHT22;5265;50.006;9.202;2022-10-19T10:50:52;15.30;58.90
10437;DHT22;5265;50.006;9.202;2022-10-19T10:53:30;15.40;49.80
10437;DHT22;5265;50.006;9.202;2022-10-19T10:55:58;15.30;40.00
10437;DHT22;5265;50.006;9.202;2022-10-19T10:58:28;15.40;25.70
10437;DHT22;5265;50.006;9.202;2022-10-19T11:00:57;15.30;14.10
10437;DHT22;5265;50.006;9.202;2022-10-19T11:03:28;15.30;8.70
10437;DHT22;5265;50.006;9.202;2022-10-19T11:05:58;15.30;9.10
10437;DHT22;5265;50.006;9.202;2022-10-19T11:08:26;15.30;4.50
10437;DHT22;5265;50.006;9.202;2022-10-19T11:10:56;15.30;1.00
10437;DHT22;5265;50.006;9.202;2022-10-19T11:13:25;15.30;1.00
10437;DHT22;5265;50.006;9.202;2022-10-19T11:15:54;15.30;1.00
10437;DHT22;5265;50.006;9.202;2022-10-19T11:18:22;15.40;1.00
10437;DHT22;5265;50.006;9.202;2022-10-19T11:20:54;15.40;1.00
10437;DHT22;5265;50.006;9.202;2022-10-19T11:23:27;15.50;1.00
10437;DHT22;5265;50.006;9.202;2022-10-19T11:26:00;15.40;1.00
10437;DHT22;5265;50.006;9.202;2022-10-19T11:28:33;15.50;1.00
10437;DHT22;5265;50.006;9.202;2022-10-19T11:31:05;15.50;1.00
10437;DHT22;5265;50.006;9.202;2022-10-19T11:33:38;15.60;1.00
10437;DHT22;5265;50.006;9.202;2022-10-19T11:36:11;15.60;1.00
10437;DHT22;5265;50.006;9.202;2022-10-19T11:38:44;15.60;1.00
10437;DHT22;5265;50.006;9.202;2022-10-19T11:41:20;15.60;1.00
10437;DHT22;5265;50.006;9.202;2022-10-19T11:43:55;15.70;1.00
10437;DHT22;5265;50.006;9.202;2022-10-19T11:46:28;15.70;1.00
10437;DHT22;5265;50.006;9.202;2022-10-19T11:49:10;15.80;1.00
10437;DHT22;5265;50.006;9.202;2022-10-19T11:51:43;15.80;1.00
10437;DHT22;5265;50.006;9.202;2022-10-19T11:54:15;15.80;1.00
10437;DHT22;5265;50.006;9.202;2022-10-19T11:56:47;15.90;1.00
10437;DHT22;5265;50.006;9.202;2022-10-19T11:59:17;15.90;1.00
10437;DHT22;5265;50.006;9.202;2022-10-19T12:01:49;15.90;1.00
10437;DHT22;5265;50.006;9.202;2022-10-19T12:04:28;16.00;1.00
10437;DHT22;5265;50.006;9.202;2022-10-19T12:07:05;16.10;1.00
10437;DHT22;5265;50.006;9.202;2022-10-19T12:09:38;16.10;1.00
10437;DHT22;5265;50.006;9.202;2022-10-19T12:12:13;16.10;1.00
10437;DHT22;5265;50.006;9.202;2022-10-19T12:14:42;16.10;1.00
10437;DHT22;5265;50.006;9.202;2022-10-19T12:17:12;16.10;1.00
10437;DHT22;5265;50.006;9.202;2022-10-19T12:19:41;16.10;1.00
10437;DHT22;5265;50.006;9.202;2022-10-19T12:22:12;16.10;1.00
10437;DHT22;5265;50.006;9.202;2022-10-19T12:24:41;16.20;1.00
10437;DHT22;5265;50.006;9.202;2022-10-19T12:27:09;16.20;1.00
10437;DHT22;5265;50.006;9.202;2022-10-19T12:29:42;16.20;1.00
10437;DHT22;5265;50.006;9.202;2022-10-19T12:32:10;16.10;1.00
10437;DHT22;5265;50.006;9.202;2022-10-19T12:34:40;16.20;1.00
10437;DHT22;5265;50.006;9.202;2022-10-19T12:37:12;16.10;1.00
10437;DHT22;5265;50.006;9.202;2022-10-19T12:39:44;16.10;1.00
10437;DHT22;5265;50.006;9.202;2022-10-19T12:42:16;16.00;1.00
10437;DHT22;5265;50.006;9.202;2022-10-19T12:47:27;16.00;1.00
10437;DHT22;5265;50.006;9.202;2022-10-19T12:49:54;15.90;1.00
10437;DHT22;5265;50.006;9.202;2022-10-19T12:55:21;15.80;1.00
10437;DHT22;5265;50.006;9.202;2022-10-19T12:57:55;15.80;1.00
10437;DHT22;5265;50.006;9.202;2022-10-19T13:00:24;15.80;1.00
10437;DHT22;5265;50.006;9.202;2022-10-19T13:02:54;15.80;1.00
10437;DHT22;5265;50.006;9.202;2022-10-19T13:05:23;15.80;1.00
10437;DHT22;5265;50.006;9.202;2022-10-19T13:07:52;15.90;1.00
10437;DHT22;5265;50.006;9.202;2022-10-19T13:10:21;15.90;1.00
10437;DHT22;5265;50.006;9.202;2022-10-19T13:12:49;15.90;1.00
10437;DHT22;5265;50.006;9.202;2022-10-19T13:18:02;15.90;1.00
10437;DHT22;5265;50.006;9.202;2022-10-19T13:28:51;16.00;1.00
10437;DHT22;5265;50.006;9.202;2022-10-19T13:31:23;16.00;1.00
10437;DHT22;5265;50.006;9.202;2022-10-19T13:33:51;15.90;1.00
10437;DHT22;5265;50.006;9.202;2022-10-19T13:36:19;15.90;1.00
10437;DHT22;5265;50.006;9.202;2022-10-19T13:38:59;15.90;1.00
10437;DHT22;5265;50.006;9.202;2022-10-19T13:41:43;15.90;1.00
10437;DHT22;5265;50.006;9.202;2022-10-19T13:47:04;15.90;1.00
10437;DHT22;5265;50.006;9.202;2022-10-19T13:54:59;15.60;1.00
10437;DHT22;5265;50.006;9.202;2022-10-19T13:57:30;15.60;1.00
10437;DHT22;5265;50.006;9.202;2022-10-19T14:00:15;15.60;1.00
10437;DHT22;5265;50.006;9.202;2022-10-19T14:05:44;15.70;1.00
10437;DHT22;5265;50.006;9.202;2022-10-19T14:08:16;15.70;1.00
10437;DHT22;5265;50.006;9.202;2022-10-19T14:10:45;15.70;1.00
10437;DHT22;5265;50.006;9.202;2022-10-19T14:13:14;15.70;1.00
10437;DHT22;5265;50.006;9.202;2022-10-19T14:15:49;15.60;1.00
10437;DHT22;5265;50.006;9.202;2022-10-19T14:18:26;15.60;1.00
10437;DHT22;5265;50.006;9.202;2022-10-19T14:20:58;15.50;1.00
10437;DHT22;5265;50.006;9.202;2022-10-19T14:23:26;15.50;1.00
10437;DHT22;5265;50.006;9.202;2022-10-19T14:25:54;15.50;1.00
10437;DHT22;5265;50.006;9.202;2022-10-19T14:28:22;15.50;1.00
10437;DHT22;5265;50.006;9.202;2022-10-19T14:30:53;15.50;1.00
10437;DHT22;5265;50.006;9.202;2022-10-19T14:33:21;15.50;1.00
10437;DHT22;5265;50.006;9.202;2022-10-19T14:35:50;15.60;1.00
10437;DHT22;5265;50.006;9.202;2022-10-19T14:38:20;15.60;1.00
10437;DHT22;5265;50.006;9.202;2022-10-19T14:40:47;15.50;1.00
10437;DHT22;5265;50.006;9.202;2022-10-19T14:43:18;15.60;1.00
10437;DHT22;5265;50.006;9.202;2022-10-19T14:48:28;15.60;1.00
10437;DHT22;5265;50.006;9.202;2022-10-19T14:50:55;15.60;1.00
10437;DHT22;5265;50.006;9.202;2022-10-19T14:53:29;15.60;1.00
10437;DHT22;5265;50.006;9.202;2022-10-19T14:56:00;15.70;1.00
10437;DHT22;5265;50.006;9.202;2022-10-19T14:58:28;15.70;1.00
10437;DHT22;5265;50.006;9.202;2022-10-19T15:00:58;15.70;1.00
10437;DHT22;5265;50.006;9.202;2022-10-19T15:03:25;15.70;1.00
10437;DHT22;5265;50.006;9.202;2022-10-19T15:05:54;15.70;1.00
10437;DHT22;5265;50.006;9.202;2022-10-19T15:08:23;15.70;1.00
10437;DHT22;5265;50.006;9.202;2022-10-19T15:10:55;15.70;1.00
10437;DHT22;5265;50.006;9.202;2022-10-19T15:13:23;15.70;1.00
10437;DHT22;5265;50.006;9.202;2022-10-19T15:15:51;15.70;1.00
10437;DHT22;5265;50.006;9.202;2022-10-19T15:18:20;15.70;1.00
10437;DHT22;5265;50.006;9.202;2022-10-19T15:20:58;15.70;1.00
10437;DHT22;5265;50.006;9.202;2022-10-19T15:23:31;15.70;1.00
10437;DHT22;5265;50.006;9.202;2022-10-19T15:26:01;15.70;1.00
10437;DHT22;5265;50.006;9.202;2022-10-19T15:28:31;15.70;1.00
10437;DHT22;5265;50.006;9.202;2022-10-19T15:30:59;15.70;1.00
10437;DHT22;5265;50.006;9.202;2022-10-19T15:33:27;15.60;1.00
10437;DHT22;5265;50.006;9.202;2022-10-19T15:36:02;15.60;1.00
10437;DHT22;5265;50.006;9.202;2022-10-19T15:38:30;15.50;1.00
10437;DHT22;5265;50.006;9.202;2022-10-19T15:40:58;15.50;1.00
10437;DHT22;5265;50.006;9.202;2022-10-19T15:43:37;15.40;1.00
10437;DHT22;5265;50.006;9.202;2022-10-19T15:46:05;15.40;1.00
10437;DHT22;5265;50.006;9.202;2022-10-19T15:48:42;15.30;1.00
10437;DHT22;5265;50.006;9.202;2022-10-19T15:51:31;15.30;1.00
10437;DHT22;5265;50.006;9.202;2022-10-19T15:53:59;15.30;1.00
10437;DHT22;5265;50.006;9.202;2022-10-19T15:56:27;15.30;1.00
10437;DHT22;5265;50.006;9.202;2022-10-19T15:58:56;15.20;1.00
10437;DHT22;5265;50.006;9.202;2022-10-19T16:01:25;15.30;1.00
10437;DHT22;5265;50.006;9.202;2022-10-19T16:03:52;15.20;1.00
10437;DHT22;5265;50.006;9.202;2022-10-19T16:06:20;15.20;1.00
10437;DHT22;5265;50.006;9.202;2022-10-19T16:08:48;15.20;1.00
10437;DHT22;5265;50.006;9.202;2022-10-19T16:11:17;15.20;1.00
10437;DHT22;5265;50.006;9.202;2022-10-19T16:13:44;15.10;1.00
10437;DHT22;5265;50.006;9.202;2022-10-19T16:16:14;15.00;1.00
10437;DHT22;5265;50.006;9.202;2022-10-19T16:18:45;15.00;1.00
10437;DHT22;5265;50.006;9.202;2022-10-19T16:21:12;14.90;1.00
10437;DHT22;5265;50.006;9.202;2022-10-19T16:23:39;15.00;1.00
10437;DHT22;5265;50.006;9.202;2022-10-19T16:26:07;15.00;1.00
10437;DHT22;5265;50.006;9.202;2022-10-19T16:28:34;14.90;1.00
10437;DHT22;5265;50.006;9.202;2022-10-19T16:31:01;14.80;1.00
10437;DHT22;5265;50.006;9.202;2022-10-19T16:33:29;14.80;1.00
10437;DHT22;5265;50.006;9.202;2022-10-19T16:35:58;14.80;1.00
10437;DHT22;5265;50.006;9.202;2022-10-19T16:38:25;14.70;1.00
10437;DHT22;5265;50.006;9.202;2022-10-19T16:40:52;14.70;1.00